Time;durP1;ratioP1;P1;durP2;ratioP2;P2;SDS_P1;SDS_P2;PMS_P1;PMS_P2;Temp;Humidity;BMP_temperature;BMP_pressure;BME280_temperature;BME280_humidity;BME280_pressure;Samples;Min_cycle;Max_cycle;Signal;HPM_P1;HPM_P2
2023/11/13 00:02:02;;;;;;;13.47;9.07;;;;;;;;;;5108281;28;20526;-72
2023/11/13 00:04:28;;;;;;;11.73;8.13;;;;;;;;;;5118342;28;20497;-71
2023/11/13 00:06:55;;;;;;;13.80;8.93;;;;;;;;;;5117436;27;20534;-71
2023/11/13 00:09:23;;;;;;;11.27;8.53;;;;;;;;;;5123821;27;20445;-68
2023/11/13 00:11:49;;;;;;;9.70;7.37;;;;;;;;;;5118616;27;20446;-70
2023/11/13 00:14:16;;;;;;;15.87;8.50;;;;;;;;;;5122849;27;20614;-69
2023/11/13 00:16:42;;;;;;;15.03;9.10;;;;;;;;;;5115841;27;20533;-70
2023/11/13 00:19:08;;;;;;;11.50;7.83;;;;;;;;;;5112588;27;20442;-67
2023/11/13 00:21:35;;;;;;;12.63;9.00;;;;;;;;;;5121566;27;20556;-70
2023/11/13 00:24:02;;;;;;;11.33;8.40;;;;;;;;;;5116041;27;20489;-69
2023/11/13 00:26:30;;;;;;;9.73;7.77;;;;;;;;;;5125297;27;20450;-72
2023/11/13 00:28:57;;;;;;;10.53;8.87;;;;;;;;;;5119249;27;20538;-72
2023/11/13 00:31:24;;;;;;;10.03;8.53;;;;;;;;;;5123221;27;20485;-68
2023/11/13 00:33:50;;;;;;;12.10;8.23;;;;;;;;;;5123028;27;20446;-70
2023/11/13 00:36:17;;;;;;;11.83;7.93;;;;;;;;;;5120065;27;20474;-70
2023/11/13 00:38:43;;;;;;;11.67;8.80;;;;;;;;;;5126970;27;21027;-71
2023/11/13 00:41:10;;;;;;;14.17;8.33;;;;;;;;;;5124643;27;20492;-71
2023/11/13 00:43:38;;;;;;;13.63;8.97;;;;;;;;;;5109591;27;20502;-71
2023/11/13 00:46:04;;;;;;;12.80;8.13;;;;;;;;;;5126102;27;20459;-68
2023/11/13 00:48:32;;;;;;;10.93;7.10;;;;;;;;;;5122401;27;20458;-71
2023/11/13 00:50:58;;;;;;;11.13;8.10;;;;;;;;;;5123531;27;20465;-68
2023/11/13 00:53:25;;;;;;;9.57;7.43;;;;;;;;;;5110529;27;20482;-70
2023/11/13 00:55:52;;;;;;;9.50;7.00;;;;;;;;;;5108694;27;20451;-69
2023/11/13 00:58:19;;;;;;;10.40;7.87;;;;;;;;;;5122820;27;20525;-70
2023/11/13 01:00:47;;;;;;;11.97;8.40;;;;;;;;;;5122977;27;20460;-69
2023/11/13 01:03:13;;;;;;;11.90;7.93;;;;;;;;;;5109507;27;20525;-69
2023/11/13 01:05:39;;;;;;;14.13;9.00;;;;;;;;;;5106277;28;20479;-71
2023/11/13 01:08:06;;;;;;;11.00;8.13;;;;;;;;;;5119495;27;20478;-71
2023/11/13 01:10:32;;;;;;;11.37;8.80;;;;;;;;;;5114923;27;20501;-70
2023/11/13 01:12:59;;;;;;;16.80;7.60;;;;;;;;;;5124311;27;20454;-67
2023/11/13 01:15:25;;;;;;;10.87;8.13;;;;;;;;;;5114831;27;21597;-71
2023/11/13 01:17:53;;;;;;;11.57;7.77;;;;;;;;;;5114300;27;20876;-71
2023/11/13 01:20:19;;;;;;;11.57;8.40;;;;;;;;;;5111281;28;20522;-68
2023/11/13 01:22:46;;;;;;;15.30;7.90;;;;;;;;;;5121138;27;20468;-70
2023/11/13 01:25:12;;;;;;;11.07;8.60;;;;;;;;;;5113446;27;20487;-71
2023/11/13 01:27:39;;;;;;;13.47;8.73;;;;;;;;;;5111623;27;20441;-72
2023/11/13 01:30:06;;;;;;;13.20;8.33;;;;;;;;;;5122070;27;20450;-72
2023/11/13 01:32:32;;;;;;;11.90;8.87;;;;;;;;;;5114534;28;20560;-72
2023/11/13 01:35:00;;;;;;;10.40;7.87;;;;;;;;;;5120276;27;20469;-70
2023/11/13 01:37:26;;;;;;;10.13;7.60;;;;;;;;;;5125955;27;20460;-72
2023/11/13 01:39:53;;;;;;;19.37;8.40;;;;;;;;;;5119347;27;20537;-72
2023/11/13 01:42:20;;;;;;;9.37;7.70;;;;;;;;;;5120550;27;20480;-68
2023/11/13 01:44:47;;;;;;;11.60;8.47;;;;;;;;;;5127023;27;20511;-71
2023/11/13 01:47:14;;;;;;;13.20;9.90;;;;;;;;;;5128018;27;20485;-72
2023/11/13 01:49:41;;;;;;;13.93;9.20;;;;;;;;;;5113181;27;20481;-70
2023/11/13 01:52:10;;;;;;;11.90;7.70;;;;;;;;;;5128543;27;20473;-71
2023/11/13 01:54:36;;;;;;;10.47;8.30;;;;;;;;;;5105920;27;20475;-72
2023/11/13 01:57:04;;;;;;;11.20;7.97;;;;;;;;;;5119643;27;20442;-72
2023/11/13 01:59:30;;;;;;;10.73;7.70;;;;;;;;;;5116550;27;20487;-73
2023/11/13 02:01:57;;;;;;;13.17;8.73;;;;;;;;;;5112244;28;20481;-74
2023/11/13 02:04:23;;;;;;;10.70;7.60;;;;;;;;;;5112227;27;20608;-70
2023/11/13 02:06:50;;;;;;;11.20;8.60;;;;;;;;;;5109254;28;20458;-74
2023/11/13 02:09:19;;;;;;;11.03;9.00;;;;;;;;;;5118332;27;20478;-72
2023/11/13 02:11:46;;;;;;;12.60;7.83;;;;;;;;;;5122454;27;20453;-74
2023/11/13 02:14:14;;;;;;;11.00;7.83;;;;;;;;;;5114738;27;20449;-73
2023/11/13 02:16:40;;;;;;;14.80;8.13;;;;;;;;;;5116801;27;20451;-72
2023/11/13 02:19:07;;;;;;;8.93;7.43;;;;;;;;;;5115976;27;20446;-71
2023/11/13 02:21:34;;;;;;;11.43;8.27;;;;;;;;;;5113707;28;20453;-73
2023/11/13 02:24:04;;;;;;;16.53;9.27;;;;;;;;;;5115765;27;20517;-73
2023/11/13 02:26:30;;;;;;;9.83;8.27;;;;;;;;;;5105418;28;20455;-73
2023/11/13 02:28:57;;;;;;;9.07;8.07;;;;;;;;;;5115677;27;20456;-70
2023/11/13 02:31:23;;;;;;;11.63;7.77;;;;;;;;;;5118623;27;20489;-70
2023/11/13 02:33:50;;;;;;;11.20;8.00;;;;;;;;;;5110088;28;20486;-70
2023/11/13 02:36:16;;;;;;;11.30;7.93;;;;;;;;;;5113116;28;20485;-72
2023/11/13 02:38:43;;;;;;;17.43;8.50;;;;;;;;;;5100933;28;20459;-70
2023/11/13 02:41:11;;;;;;;11.77;8.10;;;;;;;;;;5109222;28;20518;-72
2023/11/13 02:43:37;;;;;;;9.80;7.30;;;;;;;;;;5119011;28;20461;-71
2023/11/13 02:46:04;;;;;;;11.10;9.10;;;;;;;;;;5118120;28;20879;-71
2023/11/13 02:48:32;;;;;;;12.60;8.20;;;;;;;;;;5115029;28;20458;-70
2023/11/13 02:50:58;;;;;;;11.43;8.37;;;;;;;;;;5117646;28;20483;-73
2023/11/13 02:53:25;;;;;;;14.80;8.47;;;;;;;;;;5116909;28;20516;-71
2023/11/13 02:55:52;;;;;;;11.57;8.33;;;;;;;;;;5122986;27;20473;-73
2023/11/13 02:58:20;;;;;;;11.40;7.43;;;;;;;;;;5123135;27;20452;-72
2023/11/13 03:00:47;;;;;;;13.27;8.53;;;;;;;;;;5128198;27;20473;-69
2023/11/13 03:03:13;;;;;;;10.70;8.37;;;;;;;;;;5113885;27;20461;-71
2023/11/13 03:05:39;;;;;;;10.47;7.67;;;;;;;;;;5121556;27;20496;-71
2023/11/13 03:08:06;;;;;;;11.33;8.20;;;;;;;;;;5113120;27;20455;-73
2023/11/13 03:10:32;;;;;;;10.37;8.80;;;;;;;;;;5123015;27;20468;-71
2023/11/13 03:12:59;;;;;;;16.80;8.97;;;;;;;;;;5121217;27;20482;-72
2023/11/13 03:15:27;;;;;;;12.33;8.73;;;;;;;;;;5114441;27;20447;-73
2023/11/13 03:17:53;;;;;;;12.13;8.00;;;;;;;;;;5126883;27;20469;-73
2023/11/13 03:20:19;;;;;;;11.87;9.17;;;;;;;;;;5114909;27;20483;-71
2023/11/13 03:22:46;;;;;;;16.10;9.63;;;;;;;;;;5122575;27;21060;-72
2023/11/13 03:25:14;;;;;;;10.00;7.70;;;;;;;;;;5116024;27;20482;-72
2023/11/13 03:27:41;;;;;;;13.40;8.80;;;;;;;;;;5123112;27;20479;-71
2023/11/13 03:30:08;;;;;;;12.37;9.37;;;;;;;;;;5121128;27;20485;-73
2023/11/13 03:32:35;;;;;;;13.47;8.80;;;;;;;;;;5113349;27;20483;-71
2023/11/13 03:35:02;;;;;;;16.47;10.30;;;;;;;;;;5112797;27;20482;-74
2023/11/13 03:37:29;;;;;;;14.03;10.60;;;;;;;;;;5115639;27;20450;-73
2023/11/13 03:39:55;;;;;;;14.87;9.17;;;;;;;;;;5112156;27;20851;-72
2023/11/13 03:42:22;;;;;;;13.73;10.20;;;;;;;;;;5115579;27;20489;-72
2023/11/13 03:44:48;;;;;;;11.97;8.27;;;;;;;;;;5109693;28;20564;-74
2023/11/13 03:47:14;;;;;;;14.57;9.33;;;;;;;;;;5120864;27;20977;-73
2023/11/13 03:49:42;;;;;;;12.73;9.40;;;;;;;;;;5109270;27;20451;-75
2023/11/13 03:52:13;;;;;;;13.07;9.10;;;;;;;;;;5120847;27;20444;-74
2023/11/13 03:54:39;;;;;;;13.90;9.63;;;;;;;;;;5119675;27;20540;-75
2023/11/13 03:57:06;;;;;;;17.57;10.00;;;;;;;;;;5119081;27;20532;-75
2023/11/13 03:59:32;;;;;;;22.67;10.77;;;;;;;;;;5101271;27;20469;-75
2023/11/13 04:02:00;;;;;;;14.97;9.00;;;;;;;;;;5114279;27;20442;-75
2023/11/13 04:04:26;;;;;;;13.10;9.20;;;;;;;;;;5127836;27;20515;-74
2023/11/13 04:06:54;;;;;;;14.10;9.63;;;;;;;;;;5120993;27;20492;-73
2023/11/13 04:09:20;;;;;;;16.70;9.10;;;;;;;;;;5114461;28;20593;-71
2023/11/13 04:11:47;;;;;;;13.87;9.60;;;;;;;;;;5107144;27;20482;-74
2023/11/13 04:14:13;;;;;;;14.30;10.30;;;;;;;;;;5121350;27;20449;-75
2023/11/13 04:16:40;;;;;;;17.43;9.87;;;;;;;;;;5111411;27;20448;-74
2023/11/13 04:19:07;;;;;;;11.97;9.37;;;;;;;;;;5108079;27;20480;-75
2023/11/13 04:21:33;;;;;;;14.27;9.80;;;;;;;;;;5120069;27;20454;-75
2023/11/13 04:24:01;;;;;;;13.60;9.93;;;;;;;;;;5124443;27;20465;-71
2023/11/13 04:26:28;;;;;;;14.07;10.07;;;;;;;;;;5126336;27;20767;-74
2023/11/13 04:28:54;;;;;;;16.03;10.40;;;;;;;;;;5117443;27;20450;-72
2023/11/13 04:31:21;;;;;;;18.30;10.00;;;;;;;;;;5117808;27;20561;-74
2023/11/13 04:33:48;;;;;;;16.47;10.80;;;;;;;;;;5123005;27;20728;-75
2023/11/13 04:36:14;;;;;;;19.87;10.47;;;;;;;;;;5117519;27;20480;-71
2023/11/13 04:38:41;;;;;;;16.00;10.40;;;;;;;;;;5127097;27;20442;-73
2023/11/13 04:41:09;;;;;;;13.30;10.13;;;;;;;;;;5119779;27;20450;-76
2023/11/13 04:43:38;;;;;;;16.10;12.03;;;;;;;;;;5122670;27;21171;-73
2023/11/13 04:46:04;;;;;;;13.97;10.67;;;;;;;;;;5111205;27;20548;-75
2023/11/13 04:48:31;;;;;;;18.90;10.23;;;;;;;;;;5116023;27;20464;-69
2023/11/13 04:50:57;;;;;;;16.00;10.40;;;;;;;;;;5125273;27;20496;-72
2023/11/13 04:53:24;;;;;;;17.47;9.93;;;;;;;;;;5128400;27;20445;-72
2023/11/13 04:55:50;;;;;;;15.70;10.20;;;;;;;;;;5117854;27;20469;-72
2023/11/13 04:58:18;;;;;;;16.73;11.00;;;;;;;;;;5120339;27;20518;-72
2023/11/13 05:00:45;;;;;;;17.60;11.37;;;;;;;;;;5121050;27;20470;-72
2023/11/13 05:03:12;;;;;;;13.63;10.60;;;;;;;;;;5106121;27;20487;-72
2023/11/13 05:05:38;;;;;;;16.07;11.43;;;;;;;;;;5113589;27;20509;-71
2023/11/13 05:08:05;;;;;;;13.03;10.30;;;;;;;;;;5115422;27;20906;-69
2023/11/13 05:10:32;;;;;;;14.83;10.83;;;;;;;;;;5104648;28;21170;-72
2023/11/13 05:12:58;;;;;;;16.77;11.57;;;;;;;;;;5119302;27;20509;-73
2023/11/13 05:15:26;;;;;;;16.47;11.60;;;;;;;;;;5111225;27;20482;-70
2023/11/13 05:17:54;;;;;;;17.07;10.70;;;;;;;;;;5122777;27;20449;-72
2023/11/13 05:20:20;;;;;;;16.20;11.70;;;;;;;;;;5119384;27;20464;-70
2023/11/13 05:22:48;;;;;;;14.90;11.00;;;;;;;;;;5116738;27;20482;-72
2023/11/13 05:25:14;;;;;;;17.50;11.37;;;;;;;;;;5115825;28;20541;-72
2023/11/13 05:27:41;;;;;;;17.27;11.90;;;;;;;;;;5113949;27;20485;-71
2023/11/13 05:30:08;;;;;;;14.83;10.27;;;;;;;;;;5114945;27;20902;-72
2023/11/13 05:32:36;;;;;;;17.07;11.60;;;;;;;;;;5121350;27;20525;-73
2023/11/13 05:35:03;;;;;;;14.70;10.60;;;;;;;;;;5106641;28;20466;-71
2023/11/13 05:37:29;;;;;;;18.70;10.60;;;;;;;;;;5115299;27;20498;-69
2023/11/13 05:39:55;;;;;;;14.53;10.40;;;;;;;;;;5104070;28;20467;-73
2023/11/13 05:42:23;;;;;;;19.00;10.40;;;;;;;;;;5103614;27;20479;-72
2023/11/13 05:44:49;;;;;;;17.13;10.77;;;;;;;;;;5120719;27;20493;-71
2023/11/13 05:47:16;;;;;;;20.43;12.00;;;;;;;;;;5120977;27;20457;-72
2023/11/13 05:49:44;;;;;;;18.47;11.53;;;;;;;;;;5114199;28;20508;-73
2023/11/13 05:52:10;;;;;;;16.57;11.80;;;;;;;;;;5116429;27;20499;-72
2023/11/13 05:54:38;;;;;;;15.33;10.90;;;;;;;;;;5107610;27;20459;-72
2023/11/13 05:57:04;;;;;;;17.10;10.90;;;;;;;;;;5112895;27;20457;-71
2023/11/13 05:59:31;;;;;;;18.30;10.90;;;;;;;;;;5110066;27;20518;-72
2023/11/13 06:01:57;;;;;;;17.90;10.13;;;;;;;;;;5108251;28;20442;-71
2023/11/13 06:04:24;;;;;;;17.07;11.60;;;;;;;;;;5113472;28;20473;-67
2023/11/13 06:06:52;;;;;;;19.40;11.27;;;;;;;;;;5107411;28;20529;-66
2023/11/13 06:09:18;;;;;;;17.90;11.07;;;;;;;;;;5106182;28;20449;-68
2023/11/13 06:11:45;;;;;;;20.00;11.20;;;;;;;;;;5107113;28;20684;-70
2023/11/13 06:14:12;;;;;;;21.93;12.27;;;;;;;;;;5115699;28;20490;-68
2023/11/13 06:16:38;;;;;;;18.43;11.87;;;;;;;;;;5104314;28;20487;-68
2023/11/13 06:19:07;;;;;;;19.67;12.70;;;;;;;;;;5108097;28;21426;-70
2023/11/13 06:21:33;;;;;;;17.07;11.60;;;;;;;;;;5110381;28;20465;-69
2023/11/13 06:24:02;;;;;;;17.13;10.03;;;;;;;;;;5111157;28;20454;-69
2023/11/13 06:26:28;;;;;;;25.37;13.93;;;;;;;;;;5114440;28;20497;-81
2023/11/13 06:28:55;;;;;;;18.37;12.10;;;;;;;;;;5116302;27;20479;-79
2023/11/13 06:31:21;;;;;;;19.87;12.90;;;;;;;;;;5105292;28;20954;-82
2023/11/13 06:33:48;;;;;;;20.33;12.63;;;;;;;;;;5109660;27;21225;-81
2023/11/13 06:36:15;;;;;;;21.97;13.00;;;;;;;;;;5104083;28;21015;-81
2023/11/13 06:38:41;;;;;;;24.83;13.20;;;;;;;;;;5107148;28;20483;-83
2023/11/13 06:41:09;;;;;;;25.63;14.40;;;;;;;;;;5112493;28;20821;-80
2023/11/13 06:43:36;;;;;;;20.50;13.37;;;;;;;;;;5111223;28;20477;-81
2023/11/13 06:46:03;;;;;;;24.40;14.40;;;;;;;;;;5115304;28;20505;-80
2023/11/13 06:48:29;;;;;;;30.90;14.97;;;;;;;;;;5112002;28;21059;-77
2023/11/13 06:50:56;;;;;;;27.10;14.40;;;;;;;;;;5104789;28;20439;-80
2023/11/13 06:53:22;;;;;;;24.87;16.00;;;;;;;;;;5113600;28;20462;-81
2023/11/13 06:55:49;;;;;;;32.43;15.03;;;;;;;;;;5109187;28;20487;-78
2023/11/13 06:58:17;;;;;;;33.37;15.33;;;;;;;;;;5109480;28;20454;-79
2023/11/13 07:00:44;;;;;;;32.57;15.20;;;;;;;;;;5105007;28;20485;-81
2023/11/13 07:03:13;;;;;;;25.57;15.20;;;;;;;;;;5108616;28;20562;-80
2023/11/13 07:05:39;;;;;;;29.97;15.50;;;;;;;;;;5113553;28;20485;-81
2023/11/13 07:08:06;;;;;;;29.30;14.80;;;;;;;;;;5107376;28;20455;-81
2023/11/13 07:10:35;;;;;;;26.20;14.90;;;;;;;;;;5107084;28;20900;-79
2023/11/13 07:13:02;;;;;;;29.60;15.23;;;;;;;;;;5112600;28;20513;-79
2023/11/13 07:15:30;;;;;;;29.87;14.67;;;;;;;;;;5105323;28;20485;-77
2023/11/13 07:17:57;;;;;;;28.40;16.73;;;;;;;;;;5102206;28;20461;-81
2023/11/13 07:20:23;;;;;;;25.10;16.50;;;;;;;;;;5102505;28;20479;-80
2023/11/13 07:22:50;;;;;;;29.23;15.00;;;;;;;;;;5105484;28;20486;-79
2023/11/13 07:25:16;;;;;;;29.13;15.03;;;;;;;;;;5108588;28;20488;-80
2023/11/13 07:27:43;;;;;;;22.93;13.97;;;;;;;;;;5104493;28;20451;-80
2023/11/13 07:30:10;;;;;;;27.27;15.60;;;;;;;;;;5111418;28;20484;-78
2023/11/13 07:32:37;;;;;;;28.70;16.60;;;;;;;;;;5106849;28;20488;-79
2023/11/13 07:35:04;;;;;;;26.90;14.60;;;;;;;;;;5111831;28;20454;-79
2023/11/13 07:37:32;;;;;;;35.70;17.70;;;;;;;;;;5107773;28;20517;-79
2023/11/13 07:39:59;;;;;;;29.17;16.10;;;;;;;;;;5117975;28;20511;-74
2023/11/13 07:42:25;;;;;;;32.97;14.90;;;;;;;;;;5107550;27;21098;-73
2023/11/13 07:44:52;;;;;;;24.70;16.10;;;;;;;;;;5111369;27;20455;-76
2023/11/13 07:47:19;;;;;;;26.83;15.70;;;;;;;;;;5116241;27;20462;-75
2023/11/13 07:49:46;;;;;;;27.60;15.63;;;;;;;;;;5111766;27;20441;-76
2023/11/13 07:52:13;;;;;;;33.47;15.83;;;;;;;;;;5111024;28;20569;-76
2023/11/13 07:54:40;;;;;;;27.90;15.20;;;;;;;;;;5117174;27;20450;-76
2023/11/13 07:57:08;;;;;;;35.20;16.40;;;;;;;;;;5114376;28;20472;-75
2023/11/13 07:59:34;;;;;;;31.90;16.37;;;;;;;;;;5113430;28;20456;-76
2023/11/13 08:02:01;;;;;;;27.77;14.63;;;;;;;;;;5114571;27;20448;-77
2023/11/13 08:04:27;;;;;;;36.07;17.50;;;;;;;;;;5120273;28;20880;-75
2023/11/13 08:06:55;;;;;;;31.03;16.30;;;;;;;;;;5121760;28;20911;-70
2023/11/13 08:09:22;;;;;;;28.47;15.50;;;;;;;;;;5110834;28;20478;-71
2023/11/13 08:11:49;;;;;;;32.43;17.00;;;;;;;;;;5121423;27;20465;-74
2023/11/13 08:14:15;;;;;;;28.97;16.17;;;;;;;;;;5117493;27;20519;-70
2023/11/13 08:16:42;;;;;;;31.37;16.17;;;;;;;;;;5115557;27;20457;-73
2023/11/13 08:19:09;;;;;;;32.27;18.73;;;;;;;;;;5116246;28;20450;-79
2023/11/13 08:21:35;;;;;;;32.80;16.10;;;;;;;;;;5114118;27;20875;-73
2023/11/13 08:24:06;;;;;;;30.53;16.10;;;;;;;;;;5119645;28;20481;-69
2023/11/13 08:26:32;;;;;;;31.77;16.80;;;;;;;;;;5120135;28;20489;-69
2023/11/13 08:28:59;;;;;;;33.67;17.87;;;;;;;;;;5110723;28;20447;-81
2023/11/13 08:31:26;;;;;;;36.70;16.37;;;;;;;;;;5113189;27;20496;-75
2023/11/13 08:33:52;;;;;;;35.20;16.40;;;;;;;;;;5115417;28;20442;-78
2023/11/13 08:36:22;;;;;;;37.40;16.43;;;;;;;;;;5115904;27;20459;-70
2023/11/13 08:38:48;;;;;;;36.00;15.10;;;;;;;;;;5115283;27;20450;-71
2023/11/13 08:41:18;;;;;;;30.70;15.40;;;;;;;;;;5113527;27;20457;-73
2023/11/13 08:43:45;;;;;;;36.90;15.30;;;;;;;;;;5115853;27;21127;-72
2023/11/13 08:46:12;;;;;;;33.00;15.60;;;;;;;;;;5103313;28;20493;-77
2023/11/13 08:48:38;;;;;;;27.47;15.30;;;;;;;;;;5101483;28;20965;-79
2023/11/13 08:51:07;;;;;;;27.07;14.30;;;;;;;;;;5112195;28;20442;-71
2023/11/13 08:53:38;;;;;;;27.00;14.90;;;;;;;;;;5109871;27;20465;-74
2023/11/13 08:56:07;;;;;;;30.17;15.30;;;;;;;;;;5116121;27;20454;-72
2023/11/13 08:58:36;;;;;;;29.47;15.07;;;;;;;;;;5110493;27;20450;-75
2023/11/13 09:01:07;;;;;;;27.40;13.50;;;;;;;;;;5116984;28;20533;-75
2023/11/13 09:03:33;;;;;;;22.30;13.23;;;;;;;;;;5102426;28;20793;-75
2023/11/13 09:06:04;;;;;;;30.40;14.47;;;;;;;;;;5116257;27;20481;-73
2023/11/13 09:08:31;;;;;;;22.37;12.27;;;;;;;;;;5110001;28;20450;-76
2023/11/13 09:10:57;;;;;;;29.70;13.13;;;;;;;;;;5110189;28;21378;-78
2023/11/13 09:13:24;;;;;;;21.13;11.57;;;;;;;;;;5118906;28;20450;-80
2023/11/13 09:15:52;;;;;;;22.57;11.63;;;;;;;;;;5116718;27;20449;-74
2023/11/13 09:18:23;;;;;;;19.57;10.40;;;;;;;;;;5118852;28;20919;-74
2023/11/13 09:20:49;;;;;;;17.50;9.50;;;;;;;;;;5120300;27;20955;-74
2023/11/13 09:23:16;;;;;;;20.67;10.17;;;;;;;;;;5112939;28;20451;-72
2023/11/13 09:25:42;;;;;;;19.43;9.77;;;;;;;;;;5108736;28;20447;-78
2023/11/13 09:28:09;;;;;;;18.40;9.67;;;;;;;;;;5098900;27;20444;-83
2023/11/13 09:30:35;;;;;;;17.40;9.43;;;;;;;;;;5120968;27;20610;-78
2023/11/13 09:33:05;;;;;;;17.03;9.80;;;;;;;;;;5105049;28;21203;-73
2023/11/13 09:35:33;;;;;;;17.63;9.93;;;;;;;;;;5109452;27;20479;-80
2023/11/13 09:38:01;;;;;;;17.43;10.50;;;;;;;;;;5114931;28;20470;-75
2023/11/13 09:40:29;;;;;;;17.10;10.00;;;;;;;;;;5109701;28;21237;-77
2023/11/13 09:43:03;;;;;;;16.87;8.90;;;;;;;;;;5115610;28;20447;-77
2023/11/13 09:45:30;;;;;;;16.93;9.43;;;;;;;;;;5117909;27;20458;-77
2023/11/13 09:47:59;;;;;;;16.80;9.30;;;;;;;;;;5112277;27;20451;-76
2023/11/13 09:50:28;;;;;;;17.93;9.47;;;;;;;;;;5112820;28;20447;-79
2023/11/13 09:52:58;;;;;;;16.20;8.47;;;;;;;;;;5116495;27;20462;-71
2023/11/13 09:55:27;;;;;;;16.00;9.43;;;;;;;;;;5119870;28;20484;-86
2023/11/13 09:57:54;;;;;;;15.17;8.13;;;;;;;;;;5121666;28;20439;-89
2023/11/13 10:00:23;;;;;;;14.30;7.07;;;;;;;;;;5123358;27;20455;-77
2023/11/13 10:02:51;;;;;;;11.83;7.27;;;;;;;;;;5105702;28;20851;-72
2023/11/13 10:05:17;;;;;;;15.40;7.87;;;;;;;;;;5116269;28;20457;-70
2023/11/13 10:07:47;;;;;;;10.53;7.63;;;;;;;;;;5106128;27;20482;-74
2023/11/13 10:10:19;;;;;;;11.03;6.10;;;;;;;;;;5115752;27;20445;-74
2023/11/13 10:12:45;;;;;;;14.20;7.60;;;;;;;;;;5105501;28;20450;-74
2023/11/13 10:15:13;;;;;;;15.07;7.10;;;;;;;;;;5109217;27;20539;-70
2023/11/13 10:17:43;;;;;;;9.80;6.20;;;;;;;;;;5112905;27;20956;-69
2023/11/13 10:20:10;;;;;;;10.40;6.07;;;;;;;;;;5116350;28;20636;-72
2023/11/13 10:22:37;;;;;;;12.13;7.03;;;;;;;;;;5115890;28;20981;-72
2023/11/13 10:25:06;;;;;;;11.43;7.47;;;;;;;;;;5117142;27;20554;-73
2023/11/13 10:27:33;;;;;;;10.87;7.60;;;;;;;;;;5119281;28;20510;-71
2023/11/13 10:30:03;;;;;;;9.93;6.20;;;;;;;;;;5106386;28;20465;-73
2023/11/13 10:32:30;;;;;;;14.33;7.77;;;;;;;;;;5110475;27;20607;-71
2023/11/13 10:34:56;;;;;;;14.20;7.60;;;;;;;;;;5120760;27;20480;-72
2023/11/13 10:37:24;;;;;;;11.27;6.90;;;;;;;;;;5106893;28;20450;-75
2023/11/13 10:39:51;;;;;;;10.23;6.00;;;;;;;;;;5113467;28;20455;-77
2023/11/13 10:42:23;;;;;;;17.33;7.00;;;;;;;;;;5110742;28;20459;-72
2023/11/13 10:44:50;;;;;;;13.60;8.57;;;;;;;;;;5100608;28;21043;-80
2023/11/13 10:47:22;;;;;;;10.20;7.77;;;;;;;;;;5112989;28;20521;-75
2023/11/13 10:49:49;;;;;;;13.97;7.87;;;;;;;;;;5101321;28;20472;-74
2023/11/13 10:52:16;;;;;;;10.30;7.07;;;;;;;;;;5105550;28;20447;-74
2023/11/13 10:54:44;;;;;;;13.50;7.50;;;;;;;;;;5112938;28;20480;-75
2023/11/13 10:57:10;;;;;;;11.67;7.30;;;;;;;;;;5108924;28;20450;-74
2023/11/13 10:59:38;;;;;;;9.70;7.90;;;;;;;;;;5102114;28;20463;-76
2023/11/13 11:02:06;;;;;;;9.80;6.07;;;;;;;;;;5104971;28;20482;-74
2023/11/13 11:04:34;;;;;;;9.97;5.60;;;;;;;;;;5102210;28;20473;-78
2023/11/13 11:07:01;;;;;;;12.43;7.27;;;;;;;;;;5117953;28;20521;-77
2023/11/13 11:09:28;;;;;;;13.07;6.93;;;;;;;;;;5123229;28;20445;-76
2023/11/13 11:11:54;;;;;;;9.70;6.70;;;;;;;;;;5121549;28;20465;-74
2023/11/13 11:14:23;;;;;;;12.40;6.70;;;;;;;;;;5119920;28;21355;-71
2023/11/13 11:16:54;;;;;;;10.73;6.83;;;;;;;;;;5121931;27;20439;-75
2023/11/13 11:19:25;;;;;;;10.63;6.07;;;;;;;;;;5115782;27;20454;-72
2023/11/13 11:22:00;;;;;;;10.50;6.80;;;;;;;;;;5128752;27;20461;-71
2023/11/13 11:24:38;;;;;;;10.33;7.00;;;;;;;;;;5115367;27;20955;-71
2023/11/13 11:27:05;;;;;;;8.00;5.90;;;;;;;;;;5100908;28;20581;-71
2023/11/13 11:29:31;;;;;;;8.50;5.60;;;;;;;;;;5104689;28;20462;-71
2023/11/13 11:31:59;;;;;;;6.33;5.50;;;;;;;;;;5114100;27;20585;-72
2023/11/13 11:34:28;;;;;;;9.53;5.40;;;;;;;;;;5107796;28;20865;-73
2023/11/13 11:36:59;;;;;;;7.07;5.60;;;;;;;;;;5100650;27;20453;-74
2023/11/13 11:39:26;;;;;;;11.53;5.20;;;;;;;;;;5118932;27;20453;-69
2023/11/13 11:41:54;;;;;;;8.00;4.63;;;;;;;;;;5118502;27;20457;-74
2023/11/13 11:44:23;;;;;;;7.67;5.73;;;;;;;;;;5108450;28;20474;-70
2023/11/13 11:46:49;;;;;;;9.10;5.83;;;;;;;;;;5115385;27;20573;-74
2023/11/13 11:49:24;;;;;;;6.73;4.70;;;;;;;;;;5114172;27;21024;-73
2023/11/13 11:51:51;;;;;;;6.00;4.10;;;;;;;;;;5108191;28;20492;-71
2023/11/13 11:54:17;;;;;;;6.63;4.07;;;;;;;;;;5117615;27;20456;-72
2023/11/13 11:56:54;;;;;;;5.80;3.33;;;;;;;;;;5110308;27;20486;-73
2023/11/13 11:59:21;;;;;;;6.40;4.30;;;;;;;;;;5113270;27;20453;-71
2023/11/13 12:01:48;;;;;;;8.60;3.70;;;;;;;;;;5110382;28;20449;-70
2023/11/13 12:04:15;;;;;;;4.20;3.17;;;;;;;;;;5118768;27;20495;-69
2023/11/13 12:06:48;;;;;;;5.13;3.00;;;;;;;;;;5117364;27;20561;-76
2023/11/13 12:09:16;;;;;;;5.43;3.50;;;;;;;;;;5116849;27;21282;-71
2023/11/13 12:11:43;;;;;;;5.40;3.33;;;;;;;;;;5103533;28;20478;-73
2023/11/13 12:14:10;;;;;;;4.90;3.47;;;;;;;;;;5117229;27;20486;-74
2023/11/13 12:16:36;;;;;;;6.70;3.30;;;;;;;;;;5111725;28;20968;-70
2023/11/13 12:19:04;;;;;;;4.53;2.90;;;;;;;;;;5111459;27;20846;-72
2023/11/13 12:21:30;;;;;;;5.60;3.00;;;;;;;;;;5123303;27;20454;-71
2023/11/13 12:24:00;;;;;;;4.73;3.27;;;;;;;;;;5111510;27;20486;-73
2023/11/13 12:26:26;;;;;;;4.90;3.03;;;;;;;;;;5114361;28;20442;-73
2023/11/13 12:28:53;;;;;;;5.23;3.40;;;;;;;;;;5111735;28;20443;-75
2023/11/13 12:31:20;;;;;;;6.57;3.20;;;;;;;;;;5117554;27;20496;-72
2023/11/13 12:33:47;;;;;;;5.10;3.60;;;;;;;;;;5111173;28;20442;-71
2023/11/13 12:36:14;;;;;;;4.47;2.80;;;;;;;;;;5117545;27;20447;-74
2023/11/13 12:38:43;;;;;;;5.10;2.63;;;;;;;;;;5096511;28;20455;-71
2023/11/13 12:41:11;;;;;;;3.37;2.43;;;;;;;;;;5108860;27;20478;-70
2023/11/13 12:43:37;;;;;;;5.13;3.10;;;;;;;;;;5105153;28;20883;-69
2023/11/13 12:46:04;;;;;;;2.63;2.43;;;;;;;;;;5120592;27;21030;-72
2023/11/13 12:48:31;;;;;;;4.00;2.40;;;;;;;;;;5112230;27;20487;-77
2023/11/13 12:51:00;;;;;;;4.20;2.77;;;;;;;;;;5111473;28;20504;-75
2023/11/13 12:53:28;;;;;;;2.60;2.23;;;;;;;;;;5109409;28;20485;-71
2023/11/13 12:55:54;;;;;;;3.77;2.57;;;;;;;;;;5115092;28;20459;-71
2023/11/13 12:58:25;;;;;;;3.00;2.60;;;;;;;;;;5126487;27;20446;-72
2023/11/13 13:00:53;;;;;;;2.30;1.80;;;;;;;;;;5115100;27;20454;-75
2023/11/13 13:03:22;;;;;;;3.50;1.80;;;;;;;;;;5113777;28;20458;-68
2023/11/13 13:05:48;;;;;;;2.83;2.53;;;;;;;;;;5120775;27;20526;-69
2023/11/13 13:08:15;;;;;;;3.43;1.53;;;;;;;;;;5121124;27;21769;-72
2023/11/13 13:10:41;;;;;;;11.37;5.87;;;;;;;;;;5113308;28;20461;-66
2023/11/13 13:13:09;;;;;;;2.97;2.47;;;;;;;;;;5117196;28;20453;-69
2023/11/13 13:15:37;;;;;;;101.73;57.17;;;;;;;;;;5119735;27;20462;-71
2023/11/13 13:18:04;;;;;;;51.27;33.10;;;;;;;;;;5119518;28;20443;-69
2023/11/13 13:20:30;;;;;;;9.57;5.20;;;;;;;;;;5111438;27;20463;-69
2023/11/13 13:22:57;;;;;;;34.77;24.17;;;;;;;;;;5121484;27;20457;-69
2023/11/13 13:25:25;;;;;;;4.20;3.00;;;;;;;;;;5127298;27;20454;-68
2023/11/13 13:27:52;;;;;;;19.30;12.63;;;;;;;;;;5107817;27;20478;-69
2023/11/13 13:30:18;;;;;;;6.47;4.60;;;;;;;;;;5100729;28;20466;-70
2023/11/13 13:32:47;;;;;;;5.23;4.40;;;;;;;;;;5117850;27;20479;-68
2023/11/13 13:35:14;;;;;;;7.03;3.10;;;;;;;;;;5119871;28;20469;-70
2023/11/13 13:37:43;;;;;;;5.40;2.17;;;;;;;;;;5116443;27;21671;-75
2023/11/13 13:40:10;;;;;;;2.23;2.03;;;;;;;;;;5118630;28;20442;-78
2023/11/13 13:42:40;;;;;;;1.80;1.70;;;;;;;;;;5107457;28;20474;-71
2023/11/13 13:45:07;;;;;;;4.57;3.50;;;;;;;;;;5116369;27;20485;-72
2023/11/13 13:47:34;;;;;;;2.67;2.27;;;;;;;;;;5125423;27;20492;-70
2023/11/13 13:50:02;;;;;;;5.33;3.77;;;;;;;;;;5107491;27;20434;-74
2023/11/13 13:52:30;;;;;;;1.70;1.60;;;;;;;;;;5124647;27;20458;-71
2023/11/13 13:54:58;;;;;;;6.50;4.37;;;;;;;;;;5116357;27;21188;-70
2023/11/13 13:57:25;;;;;;;2.90;2.67;;;;;;;;;;5119453;28;20446;-71
2023/11/13 13:59:51;;;;;;;3.77;2.23;;;;;;;;;;5117998;28;20472;-73
2023/11/13 14:02:18;;;;;;;6.80;4.00;;;;;;;;;;5109831;27;20457;-70
2023/11/13 14:04:45;;;;;;;3.07;2.40;;;;;;;;;;5111801;28;20463;-71
2023/11/13 14:07:13;;;;;;;2.27;2.07;;;;;;;;;;5110401;28;20536;-69
2023/11/13 14:09:39;;;;;;;5.53;2.40;;;;;;;;;;5117658;28;20477;-68
2023/11/13 14:12:06;;;;;;;4.40;2.43;;;;;;;;;;5118858;28;20464;-69
2023/11/13 14:14:34;;;;;;;3.93;2.03;;;;;;;;;;5123699;27;20512;-71
2023/11/13 14:17:03;;;;;;;3.90;2.60;;;;;;;;;;5119637;27;20461;-70
2023/11/13 14:19:29;;;;;;;3.47;2.80;;;;;;;;;;5118368;27;20886;-70
2023/11/13 14:21:57;;;;;;;4.00;2.73;;;;;;;;;;5114436;28;20447;-69
2023/11/13 14:24:25;;;;;;;7.40;5.33;;;;;;;;;;5112012;27;20466;-73
2023/11/13 14:26:53;;;;;;;4.73;2.60;;;;;;;;;;5100392;28;20554;-74
2023/11/13 14:29:19;;;;;;;6.83;2.80;;;;;;;;;;5111048;27;20505;-71